Time;durP1;ratioP1;P1;durP2;ratioP2;P2;SDS_P1;SDS_P2;PMS_P1;PMS_P2;Temp;Humidity;BMP_temperature;BMP_pressure;BME280_temperature;BME280_humidity;BME280_pressure;Samples;Min_cycle;Max_cycle;Signal;HPM_P1;HPM_P2
2022/11/27 00:02:18;;;;;;;5.68;4.20;;;2.60;99.90;;;;;;5053221;28;20386;-71
2022/11/27 00:04:44;;;;;;;4.15;3.75;;;2.60;99.90;;;;;;5051143;28;20421;-71
2022/11/27 00:07:09;;;;;;;5.22;3.85;;;2.60;99.90;;;;;;5053155;28;20758;-71
2022/11/27 00:09:35;;;;;;;5.67;4.07;;;2.60;99.90;;;;;;5053181;28;20385;-70
2022/11/27 00:12:01;;;;;;;5.00;3.60;;;2.80;99.90;;;;;;5052893;28;20382;-71
2022/11/27 00:14:26;;;;;;;4.00;3.47;;;2.80;99.90;;;;;;5052111;28;20421;-72
2022/11/27 00:16:52;;;;;;;4.10;3.70;;;2.80;99.90;;;;;;5053106;28;20476;-71
2022/11/27 00:19:17;;;;;;;6.10;3.53;;;2.70;99.90;;;;;;5053322;28;20384;-71
2022/11/27 00:21:43;;;;;;;4.35;3.50;;;2.80;99.90;;;;;;5051898;28;20389;-71
2022/11/27 00:24:09;;;;;;;5.60;3.88;;;2.90;99.90;;;;;;5051329;28;20468;-71
2022/11/27 00:26:35;;;;;;;4.20;3.70;;;2.80;99.90;;;;;;5053244;28;20809;-71
2022/11/27 00:29:01;;;;;;;3.33;3.00;;;2.80;99.90;;;;;;5052985;28;20389;-71
2022/11/27 00:31:30;;;;;;;3.70;3.10;;;2.70;99.90;;;;;;5052899;28;20386;-71
2022/11/27 00:34:00;;;;;;;5.18;3.83;;;2.70;99.90;;;;;;5052266;28;20385;-71
2022/11/27 00:36:27;;;;;;;5.75;4.38;;;2.60;99.90;;;;;;5052983;28;20389;-69
2022/11/27 00:38:53;;;;;;;4.15;3.58;;;2.80;99.90;;;;;;5052769;28;20386;-72
2022/11/27 00:41:22;;;;;;;4.07;3.28;;;2.60;99.90;;;;;;5052742;28;20886;-70
2022/11/27 00:43:47;;;;;;;4.40;3.20;;;2.50;99.90;;;;;;5051193;28;20389;-70
2022/11/27 00:46:15;;;;;;;5.25;3.60;;;2.40;99.90;;;;;;5052204;28;20448;-70
2022/11/27 00:48:41;;;;;;;4.63;3.20;;;2.40;99.90;;;;;;5052583;28;20420;-70
2022/11/27 00:51:09;;;;;;;3.60;2.90;;;2.50;99.90;;;;;;5052251;28;20382;-70
2022/11/27 00:56:00;;;;;;;3.57;2.57;;;2.50;99.90;;;;;;5068322;22;20798;-69
2022/11/27 00:58:26;;;;;;;3.20;2.90;;;2.60;99.90;;;;;;5063805;28;20858;-69
2022/11/27 01:01:04;;;;;;;4.50;2.95;;;2.60;99.90;;;;;;5061841;28;20372;-69
2022/11/27 01:03:31;;;;;;;3.70;3.00;;;2.70;99.90;;;;;;5051000;28;20460;-69
2022/11/27 01:06:00;;;;;;;5.35;3.30;;;2.70;99.90;;;;;;5051769;28;20389;-69
2022/11/27 01:08:26;;;;;;;5.00;3.10;;;2.70;99.90;;;;;;5049832;28;20752;-69
2022/11/27 01:10:55;;;;;;;4.30;2.90;;;2.70;99.90;;;;;;5051688;28;20382;-70
2022/11/27 01:13:29;;;;;;;5.05;3.08;;;2.90;99.90;;;;;;5050860;28;20393;-70
2022/11/27 01:16:06;;;;;;;3.70;2.67;;;2.90;99.90;;;;;;5051413;28;20484;-69
2022/11/27 01:18:34;;;;;;;3.85;2.92;;;3.00;99.90;;;;;;5051376;28;20382;-70
2022/11/27 01:20:59;;;;;;;5.05;3.20;;;3.10;99.90;;;;;;5051791;28;20392;-71
2022/11/27 01:23:25;;;;;;;4.20;3.60;;;3.20;99.90;;;;;;5050862;28;20389;-70
2022/11/27 01:25:52;;;;;;;4.80;3.30;;;3.30;99.90;;;;;;5051589;28;20378;-71
2022/11/27 01:28:19;;;;;;;5.78;3.25;;;3.30;99.90;;;;;;5051607;28;20887;-71
2022/11/27 01:30:45;;;;;;;4.70;3.40;;;3.20;99.90;;;;;;5051544;28;20386;-70
2022/11/27 01:33:10;;;;;;;5.72;3.63;;;3.40;99.90;;;;;;5050541;28;20389;-71
2022/11/27 01:35:36;;;;;;;5.15;3.65;;;3.20;99.90;;;;;;5051272;28;20401;-70
2022/11/27 01:38:02;;;;;;;5.15;3.75;;;3.30;99.90;;;;;;5051403;28;20401;-71
2022/11/27 01:40:27;;;;;;;6.60;5.05;;;3.20;99.90;;;;;;5051407;28;20436;-70
2022/11/27 01:42:53;;;;;;;4.67;4.17;;;3.20;99.90;;;;;;5050680;28;20409;-71
2022/11/27 01:45:20;;;;;;;7.80;4.63;;;3.20;99.90;;;;;;5051256;28;20393;-71
2022/11/27 01:47:56;;;;;;;5.07;4.22;;;3.10;99.90;;;;;;5051326;28;20389;-70
2022/11/27 01:50:28;;;;;;;7.05;4.40;;;3.20;99.90;;;;;;5051737;28;20767;-69
2022/11/27 01:52:58;;;;;;;6.70;4.07;;;3.40;99.90;;;;;;5050156;28;20964;-69
2022/11/27 01:55:32;;;;;;;5.70;3.50;;;3.40;99.90;;;;;;5050637;28;20413;-70
2022/11/27 01:58:05;;;;;;;4.38;3.10;;;3.40;99.90;;;;;;5050118;28;20385;-69
2022/11/27 02:00:31;;;;;;;4.78;3.33;;;3.40;99.90;;;;;;5050963;28;20440;-70
2022/11/27 02:02:56;;;;;;;4.15;3.38;;;3.40;99.90;;;;;;5050110;28;20377;-70
2022/11/27 02:05:27;;;;;;;4.80;3.20;;;3.40;99.90;;;;;;5050627;28;20386;-70
2022/11/27 02:07:55;;;;;;;6.50;4.00;;;3.40;99.90;;;;;;5050567;28;20793;-70
2022/11/27 02:10:33;;;;;;;9.50;4.70;;;3.30;99.90;;;;;;5048896;28;20884;-70
2022/11/27 02:13:08;;;;;;;7.30;3.85;;;3.20;99.90;;;;;;5049824;28;20396;-69
2022/11/27 02:15:55;;;;;;;8.88;4.70;;;3.30;99.90;;;;;;5050540;28;20416;-70
2022/11/27 02:18:45;;;;;;;7.63;4.68;;;3.30;99.90;;;;;;5050386;28;20748;-70
2022/11/27 02:21:10;;;;;;;8.40;4.20;;;3.30;99.90;;;;;;5050342;28;20377;-69
2022/11/27 02:24:01;;;;;;;8.90;5.17;;;3.40;99.90;;;;;;5049640;28;20374;-70
2022/11/27 02:26:47;;;;;;;9.80;5.10;;;3.50;99.90;;;;;;5050314;28;20386;-71
2022/11/27 02:29:16;;;;;;;10.30;5.13;;;3.40;99.90;;;;;;5050109;28;20416;-70
2022/11/27 02:32:01;;;;;;;11.07;5.40;;;3.30;99.90;;;;;;5050214;28;20384;-70
2022/11/27 02:35:08;;;;;;;11.70;6.32;;;3.40;99.90;;;;;;5049226;28;20435;-70
2022/11/27 02:37:47;;;;;;;15.02;6.68;;;3.40;99.90;;;;;;5039212;28;20386;-70
2022/11/27 02:40:20;;;;;;;13.63;6.68;;;3.50;99.90;;;;;;5050143;28;20467;-70
2022/11/27 02:43:09;;;;;;;12.60;5.53;;;3.40;99.90;;;;;;5049276;28;20873;-71
2022/11/27 02:45:43;;;;;;;12.65;6.53;;;3.60;99.90;;;;;;5049916;28;20385;-70
2022/11/27 02:48:12;;;;;;;11.20;6.03;;;3.60;99.90;;;;;;5050052;28;20381;-70
2022/11/27 02:50:41;;;;;;;11.23;6.83;;;3.70;99.90;;;;;;5050124;28;20393;-70
2022/11/27 02:53:14;;;;;;;11.38;6.15;;;3.70;99.90;;;;;;5049413;28;20396;-70
2022/11/27 02:55:42;;;;;;;11.57;6.20;;;3.80;99.90;;;;;;5049867;28;20502;-70
2022/11/27 02:58:12;;;;;;;10.18;6.57;;;3.70;99.90;;;;;;5049762;28;20958;-70
2022/11/27 03:00:39;;;;;;;12.18;6.35;;;3.60;99.90;;;;;;5050057;28;20386;-70
2022/11/27 03:03:08;;;;;;;14.77;7.22;;;3.70;99.90;;;;;;5049238;28;20443;-70
2022/11/27 03:05:38;;;;;;;10.02;6.82;;;3.60;99.90;;;;;;5049864;28;20377;-70
2022/11/27 03:08:24;;;;;;;11.15;6.82;;;3.60;99.90;;;;;;5049399;28;20386;-68
2022/11/27 03:11:02;;;;;;;11.73;6.22;;;3.70;99.90;;;;;;5054089;28;20476;-70
2022/11/27 03:13:30;;;;;;;9.50;5.00;;;3.80;99.90;;;;;;5053128;28;20400;-70
2022/11/27 03:16:14;;;;;;;9.80;5.03;;;3.80;99.90;;;;;;5053736;28;20401;-70
2022/11/27 03:19:06;;;;;;;6.93;4.70;;;3.50;99.90;;;;;;5053607;28;20392;-70
2022/11/27 03:21:34;;;;;;;8.60;4.50;;;3.20;99.90;;;;;;5053702;28;20557;-70
2022/11/27 03:24:00;;;;;;;7.22;4.43;;;3.10;99.90;;;;;;5052774;28;20396;-70
2022/11/27 03:26:26;;;;;;;6.30;4.15;;;3.00;99.90;;;;;;5051300;28;20393;-70
2022/11/27 03:28:54;;;;;;;7.00;4.60;;;2.90;99.90;;;;;;5058747;28;20392;-70
2022/11/27 03:31:20;;;;;;;4.88;4.00;;;2.90;99.90;;;;;;5063558;28;20388;-70
2022/11/27 03:33:46;;;;;;;8.68;4.40;;;2.80;99.90;;;;;;5072669;28;20873;-70
2022/11/27 03:36:14;;;;;;;6.57;3.90;;;2.80;99.90;;;;;;5073597;28;20457;-70
2022/11/27 03:38:41;;;;;;;6.83;3.90;;;2.70;99.90;;;;;;5072379;28;20372;-69
2022/11/27 03:41:14;;;;;;;7.30;4.40;;;2.50;99.90;;;;;;5053568;28;20887;-70
2022/11/27 03:43:55;;;;;;;5.97;3.63;;;2.60;99.90;;;;;;5052409;28;20490;-69
2022/11/27 03:46:37;;;;;;;5.75;3.80;;;2.40;99.90;;;;;;5053274;28;20385;-69
2022/11/27 03:49:13;;;;;;;6.35;3.75;;;2.50;99.90;;;;;;5053178;28;20400;-70
2022/11/27 03:51:51;;;;;;;5.57;3.50;;;2.40;99.90;;;;;;5053206;28;20396;-70
2022/11/27 03:54:52;;;;;;;5.85;4.00;;;2.40;99.90;;;;;;5052123;28;20514;-70
2022/11/27 03:57:46;;;;;;;5.05;3.70;;;2.40;99.90;;;;;;5054794;28;20386;-70
2022/11/27 04:00:12;;;;;;;5.22;3.50;;;2.30;99.90;;;;;;5044587;28;20929;-70
2022/11/27 04:02:46;;;;;;;4.50;3.05;;;2.20;99.90;;;;;;5063909;28;20375;-70
2022/11/27 04:05:12;;;;;;;7.78;3.70;;;2.20;99.90;;;;;;5064438;28;20391;-69
2022/11/27 04:07:38;;;;;;;5.55;3.30;;;2.10;99.90;;;;;;5072987;28;20388;-69
2022/11/27 04:10:05;;;;;;;4.55;3.33;;;1.90;99.90;;;;;;5071677;28;20769;-70
2022/11/27 04:12:31;;;;;;;6.38;3.17;;;1.90;99.90;;;;;;5072288;28;20415;-70
2022/11/27 04:14:57;;;;;;;4.97;3.77;;;2.00;99.90;;;;;;5072392;28;20399;-70
2022/11/27 04:17:22;;;;;;;4.00;3.10;;;2.00;99.90;;;;;;5072731;28;20384;-70
2022/11/27 04:19:48;;;;;;;3.58;2.60;;;2.10;99.90;;;;;;5072016;28;20384;-70
2022/11/27 04:22:14;;;;;;;2.90;2.50;;;2.10;99.90;;;;;;5072679;28;20368;-69
2022/11/27 04:24:39;;;;;;;3.60;3.20;;;2.20;99.90;;;;;;5053687;28;20901;-70
2022/11/27 04:27:05;;;;;;;3.97;3.10;;;2.30;99.90;;;;;;5072519;28;20379;-70
2022/11/27 04:29:30;;;;;;;3.20;2.90;;;2.30;99.90;;;;;;5066269;28;20389;-70
2022/11/27 04:31:56;;;;;;;4.32;2.60;;;2.20;99.90;;;;;;5060749;28;20788;-70
2022/11/27 04:34:22;;;;;;;3.00;2.65;;;2.10;99.90;;;;;;5070454;28;20390;-69
2022/11/27 04:36:47;;;;;;;3.95;3.20;;;2.20;99.90;;;;;;5072612;28;20441;-70
2022/11/27 04:39:13;;;;;;;3.80;2.70;;;2.30;99.90;;;;;;5066766;28;20389;-70
2022/11/27 04:41:39;;;;;;;3.30;3.00;;;2.40;99.90;;;;;;5049461;28;20461;-70
2022/11/27 04:44:05;;;;;;;5.20;2.97;;;2.50;99.90;;;;;;5031652;28;20379;-70
2022/11/27 04:46:31;;;;;;;4.18;3.13;;;2.50;99.90;;;;;;5032431;28;20387;-70
2022/11/27 04:48:57;;;;;;;3.70;3.40;;;2.40;99.90;;;;;;5032411;28;20448;-71
2022/11/27 04:51:22;;;;;;;3.80;3.30;;;2.30;99.90;;;;;;5032555;28;20386;-70
2022/11/27 04:53:48;;;;;;;4.00;3.60;;;2.30;99.90;;;;;;5029868;28;20865;-70
2022/11/27 04:56:13;;;;;;;4.40;3.40;;;2.40;99.90;;;;;;5032225;28;20410;-70
2022/11/27 04:58:39;;;;;;;3.50;3.10;;;2.60;99.90;;;;;;5032335;28;20809;-70
2022/11/27 05:01:06;;;;;;;3.80;3.20;;;2.50;99.90;;;;;;5032240;28;20375;-70
2022/11/27 05:03:32;;;;;;;4.10;3.30;;;2.40;99.90;;;;;;5031488;28;20849;-70
2022/11/27 05:05:58;;;;;;;4.20;3.40;;;2.50;99.90;;;;;;5031962;28;20428;-71
2022/11/27 05:08:24;;;;;;;4.60;3.60;;;2.40;99.90;;;;;;5031942;28;20417;-70
2022/11/27 05:11:07;;;;;;;3.45;2.83;;;2.40;99.90;;;;;;5031865;28;20857;-70
2022/11/27 05:13:33;;;;;;;3.90;3.10;;;2.50;99.90;;;;;;5057056;28;20880;-69
2022/11/27 05:15:59;;;;;;;3.30;3.00;;;2.50;99.90;;;;;;5059250;28;20462;-70
2022/11/27 05:18:25;;;;;;;2.70;2.50;;;2.40;99.90;;;;;;5061282;28;21653;-70
2022/11/27 05:20:58;;;;;;;2.85;2.53;;;2.30;99.90;;;;;;5059136;28;20874;-70
2022/11/27 05:23:25;;;;;;;2.95;2.65;;;2.50;99.90;;;;;;5049674;28;20385;-70
2022/11/27 05:25:50;;;;;;;2.90;2.45;;;2.50;99.90;;;;;;5051496;28;20390;-70
2022/11/27 05:28:16;;;;;;;3.70;2.53;;;2.40;99.90;;;;;;5051703;28;20455;-70
2022/11/27 05:30:42;;;;;;;3.40;2.33;;;2.20;99.90;;;;;;5051116;28;20382;-70
2022/11/27 05:33:07;;;;;;;2.67;2.30;;;2.10;99.90;;;;;;5045324;28;20469;-70
2022/11/27 05:35:33;;;;;;;2.53;2.33;;;2.20;99.90;;;;;;5057845;28;20426;-70
2022/11/27 05:37:58;;;;;;;2.60;2.20;;;2.40;99.90;;;;;;5051087;28;20747;-70
2022/11/27 05:40:24;;;;;;;2.30;2.10;;;2.30;99.90;;;;;;5063110;28;20391;-69
2022/11/27 05:42:49;;;;;;;2.07;1.87;;;2.10;99.90;;;;;;5050544;28;21193;-70
2022/11/27 05:45:15;;;;;;;2.13;2.00;;;2.00;99.90;;;;;;5051106;28;20390;-71
2022/11/27 05:47:40;;;;;;;2.10;2.00;;;2.10;99.90;;;;;;5051320;28;20953;-70
2022/11/27 05:50:06;;;;;;;2.40;2.20;;;2.00;99.90;;;;;;5051016;28;20490;-70
2022/11/27 05:52:32;;;;;;;2.50;2.30;;;2.10;99.90;;;;;;5049623;28;21094;-70
2022/11/27 05:54:57;;;;;;;3.27;2.07;;;2.10;99.90;;;;;;5050751;28;20480;-70
2022/11/27 05:57:23;;;;;;;2.57;2.07;;;2.10;99.90;;;;;;5051084;28;20415;-70
2022/11/27 05:59:48;;;;;;;2.70;2.00;;;2.10;99.90;;;;;;5051020;28;20381;-69
2022/11/27 06:02:14;;;;;;;2.23;2.03;;;2.20;99.90;;;;;;5050939;28;20377;-71
2022/11/27 06:04:39;;;;;;;2.40;2.10;;;2.30;99.90;;;;;;5050443;28;20434;-70
2022/11/27 06:07:05;;;;;;;2.33;2.13;;;2.30;99.90;;;;;;5050896;28;20397;-70
2022/11/27 06:09:30;;;;;;;2.40;2.20;;;2.30;99.90;;;;;;5050937;28;20470;-70
2022/11/27 06:11:56;;;;;;;2.00;1.90;;;2.20;99.90;;;;;;5050659;28;20386;-70
2022/11/27 06:14:22;;;;;;;2.42;2.22;;;2.30;99.90;;;;;;5049966;28;20396;-70
2022/11/27 06:16:47;;;;;;;3.20;2.50;;;2.30;99.90;;;;;;5050610;28;20464;-69
2022/11/27 06:19:13;;;;;;;2.40;2.20;;;2.30;99.90;;;;;;5050850;28;20743;-69
2022/11/27 06:21:38;;;;;;;3.40;2.60;;;2.30;99.90;;;;;;5050628;28;20987;-69
2022/11/27 06:24:04;;;;;;;2.67;2.20;;;2.30;99.90;;;;;;5049910;28;20439;-69
2022/11/27 06:26:31;;;;;;;2.33;2.13;;;2.10;99.90;;;;;;5050611;28;20459;-69
2022/11/27 06:28:58;;;;;;;2.72;2.40;;;2.20;99.90;;;;;;5050643;28;20423;-70
2022/11/27 06:31:26;;;;;;;2.20;2.00;;;2.20;99.90;;;;;;5050402;28;20457;-69
2022/11/27 06:33:54;;;;;;;2.72;2.45;;;2.10;99.90;;;;;;5049647;28;20428;-69
2022/11/27 06:36:22;;;;;;;2.55;2.35;;;2.00;99.90;;;;;;5050274;28;20608;-70
2022/11/27 06:38:48;;;;;;;3.70;2.00;;;2.10;99.90;;;;;;5050367;28;20392;-70
2022/11/27 06:41:16;;;;;;;2.88;2.10;;;2.20;99.90;;;;;;5050375;28;20378;-69
2022/11/27 06:43:42;;;;;;;4.68;2.40;;;2.20;99.90;;;;;;5049235;28;20758;-69
2022/11/27 06:46:12;;;;;;;3.67;2.55;;;2.30;99.90;;;;;;5050247;28;20496;-69
2022/11/27 06:48:38;;;;;;;2.50;2.13;;;2.30;99.90;;;;;;5032450;28;20389;-70
2022/11/27 06:51:05;;;;;;;2.53;2.10;;;2.40;99.90;;;;;;5050244;28;20389;-70
2022/11/27 06:53:33;;;;;;;3.30;2.30;;;2.50;99.90;;;;;;5048525;28;20389;-69
2022/11/27 06:56:21;;;;;;;4.85;2.53;;;2.60;99.90;;;;;;5052375;22;20450;-71
2022/11/27 06:58:54;;;;;;;7.80;2.97;;;2.60;99.90;;;;;;5029691;28;20374;-71
2022/11/27 07:01:21;;;;;;;4.00;2.50;;;2.70;99.90;;;;;;5030403;28;20886;-69
2022/11/27 07:03:47;;;;;;;2.50;2.13;;;2.80;99.90;;;;;;5029904;28;20890;-71
2022/11/27 07:06:17;;;;;;;4.35;3.22;;;2.90;99.90;;;;;;5030156;28;20415;-70
2022/11/27 07:08:42;;;;;;;5.03;3.10;;;3.10;99.90;;;;;;5030670;28;20392;-70
2022/11/27 07:11:17;;;;;;;2.83;2.53;;;3.10;99.90;;;;;;5030138;28;20818;-71
2022/11/27 07:13:43;;;;;;;2.90;2.10;;;3.10;99.90;;;;;;5029612;28;20394;-71
2022/11/27 07:16:10;;;;;;;2.30;2.10;;;3.10;99.90;;;;;;5030050;28;20395;-70
2022/11/27 07:18:41;;;;;;;2.40;2.20;;;3.20;99.90;;;;;;5022732;28;20823;-71
2022/11/27 07:21:07;;;;;;;2.80;1.90;;;3.30;99.90;;;;;;5013613;28;20449;-70
2022/11/27 07:23:32;;;;;;;3.03;1.80;;;3.10;99.90;;;;;;5029331;28;20414;-71
2022/11/27 07:26:03;;;;;;;6.00;2.40;;;3.10;99.90;;;;;;5030099;28;20481;-71
2022/11/27 07:28:28;;;;;;;5.30;2.70;;;3.10;99.90;;;;;;5030248;28;20398;-70
2022/11/27 07:30:55;;;;;;;3.47;2.70;;;3.20;99.90;;;;;;5030147;28;20412;-71
2022/11/27 07:33:22;;;;;;;4.00;3.38;;;3.10;99.90;;;;;;5029339;28;20853;-70
2022/11/27 07:35:47;;;;;;;3.80;2.70;;;3.00;99.90;;;;;;5029788;28;20505;-70
2022/11/27 07:38:13;;;;;;;5.17;3.37;;;3.10;99.90;;;;;;5030039;28;20508;-71
2022/11/27 07:40:38;;;;;;;6.43;4.17;;;3.10;99.90;;;;;;5012881;28;20446;-71
2022/11/27 07:43:04;;;;;;;6.90;5.30;;;3.10;99.90;;;;;;5009488;28;20393;-71
2022/11/27 07:45:29;;;;;;;9.20;6.50;;;3.20;99.90;;;;;;5010218;28;20392;-70
2022/11/27 07:47:55;;;;;;;7.67;5.63;;;3.40;99.90;;;;;;5010207;28;20400;-71
2022/11/27 07:50:20;;;;;;;7.70;5.20;;;3.50;99.90;;;;;;5010274;28;20874;-71
2022/11/27 07:52:46;;;;;;;8.60;4.95;;;3.40;99.90;;;;;;5009187;28;20492;-70
2022/11/27 07:55:11;;;;;;;6.93;5.00;;;3.60;99.90;;;;;;5011293;28;20415;-72
2022/11/27 07:57:37;;;;;;;6.90;4.82;;;3.70;99.90;;;;;;5013442;28;20399;-70
2022/11/27 08:00:03;;;;;;;5.63;4.53;;;3.70;99.90;;;;;;5013551;28;20515;-71
2022/11/27 08:02:29;;;;;;;4.25;3.63;;;3.70;99.90;;;;;;5013133;28;20479;-71
2022/11/27 08:04:55;;;;;;;5.67;3.90;;;3.70;99.90;;;;;;5013116;28;20500;-71
2022/11/27 08:07:28;;;;;;;3.85;3.25;;;3.60;99.90;;;;;;5011373;28;20496;-71
2022/11/27 08:09:54;;;;;;;5.20;3.75;;;3.70;99.90;;;;;;5013471;28;20408;-70
2022/11/27 08:12:21;;;;;;;3.92;3.00;;;3.60;99.90;;;;;;5013444;28;20389;-71
2022/11/27 08:14:47;;;;;;;5.10;3.67;;;3.60;99.90;;;;;;5012392;28;20408;-70
2022/11/27 08:17:12;;;;;;;5.20;4.03;;;3.70;99.90;;;;;;5011390;28;20815;-71
2022/11/27 08:19:38;;;;;;;6.00;4.80;;;3.70;99.90;;;;;;5013695;28;20895;-71
2022/11/27 08:22:05;;;;;;;5.60;4.50;;;3.70;99.90;;;;;;5013189;28;20957;-71
2022/11/27 08:24:31;;;;;;;6.35;4.10;;;3.80;99.90;;;;;;5010606;28;20514;-71
2022/11/27 08:26:57;;;;;;;5.90;4.20;;;3.70;99.90;;;;;;5013148;28;20393;-71
2022/11/27 08:29:23;;;;;;;5.88;4.13;;;3.70;99.90;;;;;;5013076;28;20472;-72
2022/11/27 08:31:48;;;;;;;4.70;4.30;;;3.70;99.90;;;;;;5013026;28;20814;-71
2022/11/27 08:34:14;;;;;;;4.20;3.80;;;3.70;99.90;;;;;;5012070;28;20389;-71
2022/11/27 08:36:39;;;;;;;4.90;3.80;;;3.80;99.90;;;;;;5012998;28;20482;-72
2022/11/27 08:39:05;;;;;;;5.23;4.70;;;3.80;99.90;;;;;;5012763;28;20432;-70
2022/11/27 08:41:30;;;;;;;5.40;4.20;;;3.80;99.90;;;;;;5012856;28;20440;-71
2022/11/27 08:43:56;;;;;;;5.63;4.43;;;3.90;99.90;;;;;;5012160;28;20419;-71
2022/11/27 08:46:21;;;;;;;4.87;4.30;;;3.80;99.90;;;;;;5003282;28;20932;-71
2022/11/27 08:48:47;;;;;;;4.70;3.87;;;3.70;99.90;;;;;;5006071;28;20428;-70
2022/11/27 08:51:14;;;;;;;4.75;3.85;;;3.80;99.90;;;;;;5006854;28;20440;-71
2022/11/27 08:53:43;;;;;;;5.03;4.05;;;3.80;99.90;;;;;;4992120;28;20753;-71
2022/11/27 08:56:15;;;;;;;5.38;4.10;;;3.90;99.90;;;;;;5003434;28;20416;-71
2022/11/27 08:58:41;;;;;;;5.57;4.07;;;4.00;99.90;;;;;;5011070;28;20427;-71
2022/11/27 09:01:14;;;;;;;5.65;4.65;;;4.20;99.90;;;;;;5010078;28;20990;-71
2022/11/27 09:03:39;;;;;;;4.15;3.75;;;4.40;99.90;;;;;;5011128;28;20415;-70
2022/11/27 09:06:07;;;;;;;5.05;3.60;;;4.40;99.90;;;;;;5008477;28;20511;-71
2022/11/27 09:08:32;;;;;;;4.30;3.45;;;4.60;99.90;;;;;;5004444;28;20422;-71
2022/11/27 09:11:03;;;;;;;3.58;3.25;;;4.40;99.90;;;;;;5007223;28;20408;-71
2022/11/27 09:13:28;;;;;;;3.95;3.55;;;4.50;99.90;;;;;;4999945;28;20414;-72
2022/11/27 09:15:56;;;;;;;3.77;3.37;;;4.90;99.90;;;;;;5005383;28;20489;-71
2022/11/27 09:18:22;;;;;;;4.82;3.50;;;5.10;99.90;;;;;;5009432;28;20420;-70
2022/11/27 09:21:01;;;;;;;4.78;3.70;;;5.20;99.90;;;;;;5002917;28;20486;-72
2022/11/27 09:23:27;;;;;;;3.88;3.50;;;5.40;99.90;;;;;;5002500;28;20879;-72
2022/11/27 09:25:53;;;;;;;4.50;4.00;;;5.30;99.90;;;;;;5010487;28;20400;-71
2022/11/27 09:28:19;;;;;;;5.47;4.30;;;5.50;99.90;;;;;;5007941;28;20413;-71
2022/11/27 09:30:45;;;;;;;4.15;3.60;;;5.50;99.90;;;;;;5017760;28;20449;-72
2022/11/27 09:33:11;;;;;;;4.75;4.20;;;5.60;99.90;;;;;;5001058;28;20421;-71
2022/11/27 09:35:37;;;;;;;5.85;4.40;;;5.70;99.90;;;;;;5011145;28;20730;-71
2022/11/27 09:38:02;;;;;;;4.97;4.32;;;5.50;99.90;;;;;;5010336;28;20408;-71
2022/11/27 09:40:28;;;;;;;5.90;4.90;;;5.40;99.90;;;;;;5027912;28;20405;-71
2022/11/27 09:43:03;;;;;;;5.63;4.90;;;5.50;99.90;;;;;;5005211;28;20420;-71
2022/11/27 09:45:29;;;;;;;5.03;4.53;;;5.50;99.90;;;;;;5004726;28;20417;-69
2022/11/27 09:48:00;;;;;;;4.95;4.45;;;5.50;99.90;;;;;;5007366;28;20408;-70
2022/11/27 09:50:29;;;;;;;5.13;4.43;;;5.60;99.90;;;;;;5014153;28;20415;-72
2022/11/27 09:53:03;;;;;;;4.97;4.38;;;5.60;99.90;;;;;;4997564;28;20418;-71
2022/11/27 09:55:37;;;;;;;5.07;4.57;;;5.60;99.90;;;;;;5007643;28;20455;-71
2022/11/27 09:58:37;;;;;;;6.25;4.35;;;5.60;99.90;;;;;;5000534;28;20519;-73
2022/11/27 10:01:15;;;;;;;5.70;4.60;;;5.60;99.90;;;;;;5011031;28;20397;-71
2022/11/27 10:03:43;;;;;;;71.53;48.38;;;5.40;99.90;;;;;;4990891;28;20386;-72
2022/11/27 10:06:43;;;;;;;21.55;16.15;;;5.50;99.90;;;;;;5006907;28;20728;-71
2022/11/27 10:09:17;;;;;;;5.00;4.50;;;5.60;99.90;;;;;;5010946;28;20389;-72
2022/11/27 10:11:50;;;;;;;5.28;4.10;;;5.50;99.90;;;;;;5005031;28;20952;-72
2022/11/27 10:14:51;;;;;;;4.63;4.23;;;5.40;99.90;;;;;;5003784;28;20864;-71
2022/11/27 10:17:43;;;;;;;4.38;3.97;;;5.60;99.90;;;;;;5014779;28;20431;-72
2022/11/27 10:20:36;;;;;;;4.40;3.97;;;5.40;99.90;;;;;;5007323;28;20411;-72
2022/11/27 10:23:13;;;;;;;5.50;4.00;;;5.60;99.90;;;;;;5009240;28;20408;-72
2022/11/27 10:25:44;;;;;;;4.90;4.00;;;5.50;99.90;;;;;;5009674;28;20443;-72
2022/11/27 10:28:09;;;;;;;5.85;4.80;;;5.80;99.90;;;;;;5007522;28;20401;-71
2022/11/27 10:30:54;;;;;;;7.20;4.80;;;6.00;99.90;;;;;;4999802;28;21588;-72
2022/11/27 10:33:25;;;;;;;5.53;4.75;;;6.10;99.90;;;;;;5001168;28;20401;-72
2022/11/27 10:35:52;;;;;;;4.57;4.07;;;6.20;99.90;;;;;;5004696;28;20423;-71
2022/11/27 10:38:25;;;;;;;4.50;4.10;;;6.30;99.90;;;;;;5001044;28;20400;-73
2022/11/27 10:41:19;;;;;;;4.80;4.40;;;6.30;99.90;;;;;;5011801;28;20388;-71
2022/11/27 10:43:53;;;;;;;4.53;4.13;;;6.60;99.90;;;;;;5006654;28;20405;-72
2022/11/27 10:46:26;;;;;;;4.50;3.97;;;6.70;99.90;;;;;;5009750;28;20420;-72
2022/11/27 10:48:52;;;;;;;5.28;4.13;;;6.70;99.90;;;;;;5008359;28;20863;-73
2022/11/27 10:51:21;;;;;;;4.10;3.70;;;6.60;99.90;;;;;;5012545;28;20399;-72
2022/11/27 10:53:52;;;;;;;4.78;4.15;;;6.90;99.90;;;;;;5014879;28;20402;-72
2022/11/27 10:56:48;;;;;;;4.80;3.80;;;6.90;99.90;;;;;;5017931;28;20927;-72
2022/11/27 11:00:06;;;;;;;142.48;114.13;;;7.10;99.90;;;;;;5005127;28;20418;-73
2022/11/27 11:02:34;;;;;;;4.77;4.30;;;7.40;99.90;;;;;;4980829;28;20410;-73
2022/11/27 11:05:20;;;;;;;6.25;5.53;;;7.30;99.90;;;;;;5007019;28;20412;-73
2022/11/27 11:07:57;;;;;;;4.95;4.35;;;7.70;99.90;;;;;;5007302;28;20435;-73
2022/11/27 11:10:28;;;;;;;4.90;4.32;;;7.80;99.90;;;;;;5009115;28;20410;-73
2022/11/27 11:13:10;;;;;;;4.60;3.70;;;8.10;99.90;;;;;;5010727;28;20407;-74
2022/11/27 11:15:48;;;;;;;4.85;3.80;;;7.90;99.90;;;;;;5005668;28;20459;-73
2022/11/27 11:18:26;;;;;;;3.75;3.35;;;8.20;99.90;;;;;;5009169;28;20396;-73
2022/11/27 11:20:55;;;;;;;4.10;3.70;;;8.60;99.90;;;;;;5001517;28;20400;-73
2022/11/27 11:23:41;;;;;;;3.85;3.45;;;8.60;99.90;;;;;;4998136;28;20454;-74
2022/11/27 11:26:31;;;;;;;3.85;3.55;;;8.20;99.90;;;;;;4998982;28;20519;-73
2022/11/27 11:29:00;;;;;;;4.22;3.83;;;8.30;99.90;;;;;;5005136;28;20401;-73
2022/11/27 11:31:37;;;;;;;4.35;3.60;;;8.40;99.90;;;;;;5013684;28;20416;-72
2022/11/27 11:34:13;;;;;;;4.35;3.70;;;8.60;99.90;;;;;;5013218;28;20939;-72
2022/11/27 11:36:39;;;;;;;4.28;3.88;;;8.60;99.90;;;;;;5014091;28;20499;-73
2022/11/27 11:39:04;;;;;;;3.80;3.50;;;8.50;99.90;;;;;;5012639;28;20954;-73
2022/11/27 11:41:39;;;;;;;4.23;3.83;;;8.80;99.90;;;;;;5010524;28;20405;-73
2022/11/27 11:44:04;;;;;;;4.28;3.20;;;9.20;99.90;;;;;;5009473;28;20393;-71
2022/11/27 11:46:32;;;;;;;4.50;3.88;;;9.50;99.90;;;;;;4999557;28;20472;-71
2022/11/27 11:48:59;;;;;;;4.03;3.58;;;9.20;99.90;;;;;;5012264;28;20393;-71
2022/11/27 11:51:31;;;;;;;5.00;3.58;;;9.30;99.90;;;;;;5014117;28;20836;-72
2022/11/27 11:54:17;;;;;;;3.67;3.33;;;9.10;99.90;;;;;;5013097;28;20382;-72
2022/11/27 11:56:51;;;;;;;3.73;3.20;;;9.10;99.90;;;;;;5013467;28;20504;-72
2022/11/27 11:59:34;;;;;;;4.43;4.03;;;9.20;99.90;;;;;;5013804;28;20377;-71
2022/11/27 12:02:21;;;;;;;4.00;3.60;;;9.10;99.90;;;;;;5012555;28;20389;-72
2022/11/27 12:04:49;;;;;;;4.45;3.92;;;9.00;99.90;;;;;;5012863;28;20439;-71
2022/11/27 12:07:52;;;;;;;4.13;3.72;;;9.10;99.90;;;;;;5013607;28;20480;-71
2022/11/27 12:10:30;;;;;;;3.80;3.50;;;9.00;99.90;;;;;;5013538;28;20412;-70
2022/11/27 12:13:21;;;;;;;3.58;3.22;;;9.00;99.90;;;;;;5013090;28;20388;-70
2022/11/27 12:16:06;;;;;;;4.40;3.10;;;9.00;99.90;;;;;;5013043;28;20473;-70
2022/11/27 12:18:50;;;;;;;3.55;3.05;;;9.30;99.90;;;;;;5012238;28;20392;-71
2022/11/27 12:21:34;;;;;;;5.20;3.20;;;9.10;99.90;;;;;;5013216;28;20404;-71
2022/11/27 12:24:23;;;;;;;4.80;3.43;;;9.00;99.90;;;;;;5012528;28;20393;-71
2022/11/27 12:27:20;;;;;;;4.10;3.70;;;8.90;99.90;;;;;;5007778;28;20409;-71
2022/11/27 12:30:01;;;;;;;3.70;3.40;;;9.10;99.90;;;;;;5007910;28;20859;-71
2022/11/27 12:32:57;;;;;;;4.05;3.75;;;9.20;99.90;;;;;;5012356;28;20481;-71
2022/11/27 12:35:29;;;;;;;4.32;3.80;;;9.10;99.90;;;;;;5012336;28;20504;-70
2022/11/27 12:38:36;;;;;;;5.28;3.92;;;8.90;99.90;;;;;;5010416;28;20411;-71
2022/11/27 12:41:13;;;;;;;4.47;4.07;;;8.90;99.90;;;;;;4987934;28;20401;-71
2022/11/27 12:43:48;;;;;;;5.30;4.05;;;8.90;99.90;;;;;;4998111;28;20434;-71
2022/11/27 12:46:36;;;;;;;4.60;4.20;;;8.90;99.90;;;;;;5012509;28;20544;-71
2022/11/27 12:49:16;;;;;;;4.77;4.07;;;9.20;99.90;;;;;;5012665;28;20475;-71
2022/11/27 12:52:08;;;;;;;4.22;3.83;;;9.10;99.90;;;;;;5012716;28;20424;-71
2022/11/27 12:57:10;;;;;;;3.80;3.50;;;9.10;99.90;;;;;;5049082;28;20425;-70
2022/11/27 12:59:49;;;;;;;5.15;3.92;;;9.20;99.90;;;;;;5052466;28;20868;-71
2022/11/27 13:02:32;;;;;;;5.47;3.85;;;9.10;99.90;;;;;;5052237;28;20885;-70
2022/11/27 13:05:08;;;;;;;4.63;4.10;;;9.20;99.90;;;;;;5050802;28;20963;-70
2022/11/27 13:07:42;;;;;;;4.20;3.80;;;9.10;99.90;;;;;;5052387;28;20381;-70
2022/11/27 13:10:20;;;;;;;3.55;3.25;;;9.20;99.90;;;;;;5052351;28;20393;-70
2022/11/27 13:12:55;;;;;;;3.40;3.10;;;9.20;99.90;;;;;;5051137;28;20416;-70
2022/11/27 13:15:31;;;;;;;3.50;3.20;;;9.30;99.90;;;;;;5051671;28;20401;-71
2022/11/27 13:18:13;;;;;;;3.22;2.78;;;9.40;99.90;;;;;;5049382;28;21194;-70
2022/11/27 13:20:39;;;;;;;3.65;3.35;;;9.30;99.90;;;;;;5035817;28;20417;-71
2022/11/27 13:23:05;;;;;;;4.40;4.00;;;9.30;99.90;;;;;;5051285;28;20381;-70